Time;durP1;ratioP1;P1;durP2;ratioP2;P2;SDS_P1;SDS_P2;PMS_P1;PMS_P2;Temp;Humidity;BMP_temperature;BMP_pressure;BME280_temperature;BME280_humidity;BME280_pressure;Samples;Min_cycle;Max_cycle;Signal;HPM_P1;HPM_P2
2021/01/10 00:00:51;;;;;;;4.93;4.40;;;25.80;57.20;;;;;;4963944;28;20245;-52
2021/01/10 00:03:22;;;;;;;6.50;4.25;;;25.80;57.30;;;;;;4961722;28;20628;-52
2021/01/10 00:05:53;;;;;;;4.65;4.20;;;25.70;57.20;;;;;;4964827;28;20231;-58
2021/01/10 00:08:24;;;;;;;4.82;4.40;;;25.70;57.20;;;;;;4966437;28;20241;-52
2021/01/10 00:10:55;;;;;;;6.60;4.72;;;25.70;57.20;;;;;;4965138;28;20267;-52
2021/01/10 00:13:26;;;;;;;5.15;4.38;;;25.80;57.30;;;;;;4964688;28;20293;-53
2021/01/10 00:15:56;;;;;;;7.43;4.45;;;25.70;57.40;;;;;;4979160;28;20248;-52
2021/01/10 00:18:27;;;;;;;12.65;5.13;;;25.80;57.50;;;;;;4955678;28;20225;-50
2021/01/10 00:20:57;;;;;;;6.90;4.68;;;25.70;57.40;;;;;;4965702;28;20309;-54
2021/01/10 00:23:29;;;;;;;5.93;4.68;;;25.80;57.50;;;;;;4967677;28;20244;-56
2021/01/10 00:26:01;;;;;;;5.35;4.45;;;25.80;57.50;;;;;;4968120;28;20712;-57
2021/01/10 00:28:33;;;;;;;4.85;4.35;;;25.80;57.50;;;;;;4961506;28;20658;-55
2021/01/10 00:31:04;;;;;;;4.68;4.07;;;25.80;57.30;;;;;;4975153;28;20240;-55
2021/01/10 00:33:34;;;;;;;4.95;4.18;;;25.80;57.30;;;;;;4969030;28;20260;-56
2021/01/10 00:36:05;;;;;;;7.25;4.20;;;25.80;57.30;;;;;;4974023;28;20255;-51
2021/01/10 00:38:36;;;;;;;6.45;4.60;;;25.80;57.10;;;;;;4971480;28;20252;-54
2021/01/10 00:41:09;;;;;;;5.45;4.90;;;25.90;57.20;;;;;;4970690;28;20616;-53
2021/01/10 00:43:40;;;;;;;10.32;4.82;;;25.90;57.20;;;;;;4983912;28;20295;-54
2021/01/10 00:46:15;;;;;;;5.60;4.68;;;25.90;57.20;;;;;;5015798;28;20691;-51
2021/01/10 00:48:46;;;;;;;5.40;4.90;;;25.90;57.20;;;;;;5062605;28;20234;-54
2021/01/10 00:51:16;;;;;;;5.82;4.25;;;26.00;57.30;;;;;;4972690;28;20290;-53
2021/01/10 00:53:47;;;;;;;7.30;4.53;;;26.00;57.10;;;;;;5009512;28;20286;-53
2021/01/10 00:56:19;;;;;;;6.13;4.32;;;26.00;57.10;;;;;;4984076;28;20247;-51
2021/01/10 00:58:49;;;;;;;4.85;4.20;;;26.10;57.20;;;;;;4965651;28;20229;-53
2021/01/10 01:01:20;;;;;;;6.25;4.10;;;26.10;57.20;;;;;;4963445;28;20228;-51
2021/01/10 01:03:51;;;;;;;6.07;4.15;;;26.10;57.20;;;;;;4968263;28;20267;-51
2021/01/10 01:06:21;;;;;;;6.25;4.25;;;26.10;57.10;;;;;;4964363;28;20233;-52
2021/01/10 01:08:51;;;;;;;4.70;3.92;;;26.20;57.20;;;;;;4975110;28;20233;-51
2021/01/10 01:11:30;;;;;;;4.93;4.25;;;26.30;57.20;;;;;;4962288;28;20323;-51
2021/01/10 01:14:01;;;;;;;6.70;3.97;;;26.30;57.00;;;;;;4963535;28;20240;-57
2021/01/10 01:16:31;;;;;;;4.18;3.78;;;26.30;57.00;;;;;;4968469;28;20233;-52
2021/01/10 01:19:04;;;;;;;4.65;3.55;;;26.40;57.00;;;;;;4961189;28;20224;-51
2021/01/10 01:21:34;;;;;;;4.32;3.33;;;26.40;56.70;;;;;;4963971;28;20221;-53
2021/01/10 01:24:06;;;;;;;4.00;3.63;;;26.50;56.70;;;;;;4961241;28;20229;-52
2021/01/10 01:26:38;;;;;;;4.68;4.28;;;26.60;56.50;;;;;;4965499;28;20320;-56
2021/01/10 01:29:08;;;;;;;6.05;4.10;;;26.60;56.40;;;;;;4958552;28;20236;-55
2021/01/10 01:31:40;;;;;;;4.72;3.88;;;26.70;56.30;;;;;;4961220;28;20229;-55
2021/01/10 01:34:13;;;;;;;5.53;3.95;;;26.80;56.30;;;;;;4965140;28;20239;-52
2021/01/10 01:36:43;;;;;;;5.07;3.88;;;26.80;56.30;;;;;;4963426;28;20683;-56
2021/01/10 01:39:14;;;;;;;4.20;3.80;;;26.90;56.40;;;;;;4964754;28;20236;-56
2021/01/10 01:41:46;;;;;;;4.63;3.85;;;26.90;56.30;;;;;;4963642;28;20233;-55
2021/01/10 01:44:16;;;;;;;4.80;4.30;;;27.00;56.20;;;;;;4966387;28;21189;-57
2021/01/10 01:46:46;;;;;;;6.07;4.25;;;27.10;56.10;;;;;;4965369;28;20318;-56
2021/01/10 01:49:18;;;;;;;4.43;4.03;;;27.10;56.00;;;;;;4964375;28;20244;-55
2021/01/10 01:51:49;;;;;;;5.95;4.28;;;27.20;56.00;;;;;;4965069;28;20248;-57
2021/01/10 01:54:19;;;;;;;4.18;3.78;;;27.30;55.90;;;;;;4961393;28;22604;-57
2021/01/10 01:56:51;;;;;;;6.38;3.90;;;27.40;55.70;;;;;;4962136;28;20229;-53
2021/01/10 01:59:22;;;;;;;4.75;4.32;;;27.40;55.60;;;;;;4965972;28;20324;-57
2021/01/10 02:01:53;;;;;;;4.30;3.90;;;27.50;55.70;;;;;;4967679;28;20274;-55
2021/01/10 02:04:27;;;;;;;7.25;3.95;;;27.60;55.60;;;;;;4963323;28;20237;-54
2021/01/10 02:06:59;;;;;;;5.35;4.72;;;27.70;55.40;;;;;;4966167;28;20232;-54
2021/01/10 02:09:30;;;;;;;4.70;4.28;;;27.80;55.00;;;;;;4964459;28;20911;-56
2021/01/10 02:12:04;;;;;;;6.55;4.55;;;27.80;54.90;;;;;;4958417;28;20234;-57
2021/01/10 02:14:36;;;;;;;5.25;4.43;;;27.90;54.50;;;;;;4960031;28;20236;-53
2021/01/10 02:17:06;;;;;;;5.03;4.50;;;28.00;54.50;;;;;;4968163;28;20260;-54
2021/01/10 02:19:39;;;;;;;6.40;4.47;;;28.00;54.70;;;;;;4963014;28;20229;-51
2021/01/10 02:22:10;;;;;;;6.07;4.60;;;28.10;54.70;;;;;;4922180;28;20230;-56
2021/01/10 02:24:42;;;;;;;6.35;4.30;;;28.10;54.40;;;;;;4906631;29;20622;-53
2021/01/10 02:27:12;;;;;;;8.45;4.47;;;28.20;54.30;;;;;;4909235;29;20648;-55
2021/01/10 02:29:43;;;;;;;5.70;4.50;;;28.30;54.20;;;;;;4908280;29;20723;-57
2021/01/10 02:32:13;;;;;;;4.90;4.22;;;28.30;54.10;;;;;;4899464;29;20230;-52
2021/01/10 02:34:44;;;;;;;5.88;4.35;;;28.40;54.10;;;;;;4816403;29;20242;-56
2021/01/10 02:37:24;;;;;;;5.28;4.60;;;28.50;53.70;;;;;;4796006;29;20730;-53
2021/01/10 02:40:05;;;;;;;4.85;4.35;;;28.60;53.60;;;;;;4796685;29;20250;-55
2021/01/10 02:42:39;;;;;;;6.43;4.47;;;28.60;53.60;;;;;;4776465;29;20708;-58
2021/01/10 02:45:12;;;;;;;6.63;5.13;;;28.70;53.30;;;;;;4778843;29;20291;-54
2021/01/10 02:47:43;;;;;;;6.72;5.25;;;28.70;53.20;;;;;;4729468;30;20245;-52
2021/01/10 02:50:17;;;;;;;6.22;4.95;;;28.80;53.20;;;;;;4773811;29;20266;-53
2021/01/10 02:52:49;;;;;;;5.55;4.88;;;28.80;53.30;;;;;;4775163;29;20258;-57
2021/01/10 02:55:20;;;;;;;9.60;5.25;;;28.90;53.10;;;;;;4777000;29;20243;-57
2021/01/10 02:57:53;;;;;;;5.97;4.68;;;29.00;52.90;;;;;;4778319;29;20716;-55
2021/01/10 03:00:24;;;;;;;14.65;12.70;;;29.00;53.30;;;;;;4784263;29;20337;-54
2021/01/10 03:02:55;;;;;;;14.45;10.70;;;29.10;53.10;;;;;;4795319;29;20330;-56
2021/01/10 03:05:26;;;;;;;11.43;8.82;;;29.20;53.20;;;;;;4795895;29;20746;-52
2021/01/10 03:07:57;;;;;;;12.82;10.43;;;29.20;52.80;;;;;;4861490;29;20239;-56
2021/01/10 03:10:29;;;;;;;14.45;11.35;;;29.30;52.90;;;;;;4887681;29;20600;-56
2021/01/10 03:13:00;;;;;;;7.93;7.15;;;29.40;52.90;;;;;;4897511;29;20241;-54
2021/01/10 03:15:30;;;;;;;8.68;6.78;;;29.50;52.80;;;;;;4906093;29;20238;-56
2021/01/10 03:18:03;;;;;;;7.32;6.32;;;29.60;52.40;;;;;;4903860;29;20238;-54
2021/01/10 03:20:34;;;;;;;8.55;6.40;;;29.60;52.40;;;;;;4887350;29;20242;-56
2021/01/10 03:23:05;;;;;;;7.85;6.50;;;29.70;52.10;;;;;;4917124;29;20276;-54
2021/01/10 03:25:37;;;;;;;9.50;6.72;;;29.80;51.80;;;;;;4949017;28;20768;-53
2021/01/10 03:28:07;;;;;;;7.85;6.15;;;29.80;51.50;;;;;;4963736;28;20233;-51
2021/01/10 03:30:38;;;;;;;12.60;7.70;;;29.90;51.60;;;;;;4907660;28;20274;-57
2021/01/10 03:33:08;;;;;;;10.18;7.18;;;29.90;51.30;;;;;;4903885;28;20237;-54
2021/01/10 03:35:40;;;;;;;7.30;5.75;;;30.00;51.10;;;;;;4900588;28;20321;-56
2021/01/10 03:38:11;;;;;;;9.43;7.57;;;30.10;51.30;;;;;;4900197;28;20234;-56
2021/01/10 03:40:43;;;;;;;8.50;7.13;;;30.10;51.20;;;;;;4901687;28;20803;-56
2021/01/10 03:43:13;;;;;;;7.13;6.43;;;30.10;51.20;;;;;;4899523;28;20239;-54
2021/01/10 03:45:45;;;;;;;7.65;6.93;;;30.20;51.30;;;;;;4931658;28;20237;-55
2021/01/10 03:48:15;;;;;;;8.02;6.85;;;30.20;51.30;;;;;;4973828;28;20233;-55
2021/01/10 03:50:48;;;;;;;6.97;6.28;;;30.30;50.90;;;;;;4957746;28;20794;-53
2021/01/10 03:53:19;;;;;;;6.15;5.40;;;30.30;50.80;;;;;;4959884;28;20236;-53
2021/01/10 03:55:50;;;;;;;7.15;6.38;;;30.40;50.90;;;;;;4967314;28;20232;-54
2021/01/10 03:58:21;;;;;;;8.48;6.05;;;30.50;50.90;;;;;;4961515;28;20233;-54
2021/01/10 04:00:52;;;;;;;8.18;5.38;;;30.50;50.60;;;;;;4966466;28;20237;-55
2021/01/10 04:03:22;;;;;;;6.63;6.03;;;30.60;50.70;;;;;;4962979;28;20232;-54
2021/01/10 04:05:53;;;;;;;6.90;5.47;;;30.60;50.50;;;;;;4961898;28;20321;-51
2021/01/10 04:08:23;;;;;;;9.38;5.90;;;30.70;50.70;;;;;;4961242;28;20711;-56
2021/01/10 04:10:55;;;;;;;7.15;5.35;;;30.80;50.60;;;;;;4962872;28;20264;-53
2021/01/10 04:13:26;;;;;;;5.97;5.38;;;30.80;50.50;;;;;;4967256;28;20255;-54
2021/01/10 04:15:57;;;;;;;5.88;5.22;;;30.90;50.40;;;;;;4960373;28;20747;-55
2021/01/10 04:18:27;;;;;;;7.15;5.28;;;31.00;50.10;;;;;;4987082;28;20240;-54
2021/01/10 04:20:58;;;;;;;7.00;5.60;;;31.10;49.90;;;;;;4965009;28;20286;-52
2021/01/10 04:23:28;;;;;;;6.28;4.72;;;31.20;49.50;;;;;;4965670;28;20780;-53
2021/01/10 04:26:01;;;;;;;7.45;5.15;;;31.20;49.30;;;;;;4959166;28;21592;-55
2021/01/10 04:28:31;;;;;;;5.72;4.78;;;31.30;49.20;;;;;;4962948;28;20352;-57
2021/01/10 04:31:02;;;;;;;5.55;4.75;;;31.30;49.20;;;;;;4959379;28;20240;-56
2021/01/10 04:33:34;;;;;;;5.60;4.65;;;31.40;49.20;;;;;;4961693;28;20248;-55
2021/01/10 04:36:06;;;;;;;7.93;4.47;;;31.50;49.30;;;;;;4958923;28;20238;-54
2021/01/10 04:38:36;;;;;;;5.68;4.80;;;31.50;49.10;;;;;;4997577;28;20252;-54
2021/01/10 04:41:08;;;;;;;7.07;5.20;;;31.60;49.10;;;;;;4954472;28;20317;-53
2021/01/10 04:43:39;;;;;;;7.40;5.47;;;31.70;48.50;;;;;;4964973;28;20232;-55
2021/01/10 04:46:11;;;;;;;6.03;5.10;;;31.80;48.00;;;;;;4956687;28;20229;-55
2021/01/10 04:48:42;;;;;;;5.60;5.05;;;31.80;47.60;;;;;;4957284;28;20233;-53
2021/01/10 04:51:12;;;;;;;5.80;3.80;;;31.90;47.80;;;;;;4961719;28;20236;-56
2021/01/10 04:53:43;;;;;;;4.50;4.10;;;31.90;47.50;;;;;;4962985;28;20229;-57
2021/01/10 04:56:15;;;;;;;4.68;4.25;;;32.00;47.20;;;;;;4952687;28;20252;-57
2021/01/10 04:58:50;;;;;;;7.25;4.30;;;32.00;47.20;;;;;;4959667;28;21187;-54
2021/01/10 05:01:22;;;;;;;6.60;3.75;;;32.10;47.00;;;;;;4917445;28;20635;-57
2021/01/10 05:03:55;;;;;;;4.90;3.63;;;32.10;47.20;;;;;;4918140;29;20246;-57
2021/01/10 05:06:27;;;;;;;6.55;4.05;;;32.10;47.40;;;;;;4870875;28;20617;-57
2021/01/10 05:08:57;;;;;;;5.88;5.20;;;32.20;47.40;;;;;;4869236;28;20306;-55
2021/01/10 05:11:29;;;;;;;5.40;4.88;;;32.20;47.00;;;;;;4868189;28;20267;-54
2021/01/10 05:14:00;;;;;;;5.25;4.75;;;32.30;46.90;;;;;;4871935;28;20243;-55
2021/01/10 05:16:37;;;;;;;5.95;4.60;;;32.30;46.40;;;;;;4861669;28;20244;-52
2021/01/10 05:19:08;;;;;;;5.05;4.55;;;32.40;47.00;;;;;;4829115;29;20236;-53
2021/01/10 05:21:41;;;;;;;4.15;3.75;;;32.50;47.20;;;;;;4830906;29;20726;-52
2021/01/10 05:24:12;;;;;;;6.03;4.20;;;32.60;46.80;;;;;;4829828;29;20253;-52
2021/01/10 05:26:44;;;;;;;4.72;3.40;;;32.60;46.80;;;;;;4900077;29;20234;-56
2021/01/10 05:29:15;;;;;;;5.00;4.47;;;32.70;45.80;;;;;;4909072;29;20800;-53
2021/01/10 05:31:46;;;;;;;4.70;4.03;;;32.80;45.70;;;;;;4923170;29;20238;-53
2021/01/10 05:34:16;;;;;;;4.40;4.00;;;32.80;45.60;;;;;;4920736;29;21063;-53
2021/01/10 05:36:47;;;;;;;4.07;3.65;;;32.90;46.40;;;;;;4923531;29;20731;-54
2021/01/10 05:39:19;;;;;;;5.85;3.55;;;33.00;45.70;;;;;;4927332;29;20757;-56
2021/01/10 05:41:55;;;;;;;8.32;4.13;;;33.00;45.80;;;;;;4928235;29;20245;-54
2021/01/10 05:44:26;;;;;;;5.90;4.28;;;33.10;45.40;;;;;;4952082;28;20232;-56
2021/01/10 05:47:03;;;;;;;4.85;3.88;;;33.10;45.20;;;;;;4964067;28;20244;-54
2021/01/10 05:49:34;;;;;;;4.93;4.18;;;33.20;44.80;;;;;;4965333;28;20238;-52
2021/01/10 05:52:09;;;;;;;9.60;4.30;;;33.20;44.70;;;;;;5006075;28;20742;-56
2021/01/10 05:54:41;;;;;;;4.07;3.65;;;33.20;44.20;;;;;;5022006;28;20249;-55
2021/01/10 05:57:13;;;;;;;4.10;3.70;;;33.30;44.90;;;;;;5004674;28;20240;-53
2021/01/10 05:59:48;;;;;;;5.70;3.75;;;33.30;44.80;;;;;;4957697;28;20265;-55
2021/01/10 06:02:29;;;;;;;6.60;4.40;;;33.40;45.10;;;;;;4955010;28;20290;-57
2021/01/10 06:05:12;;;;;;;4.97;4.47;;;33.40;44.70;;;;;;4955960;28;20601;-52
2021/01/10 06:07:43;;;;;;;4.57;4.18;;;33.50;44.60;;;;;;4954843;28;20612;-53
2021/01/10 06:10:14;;;;;;;3.88;3.40;;;33.50;44.10;;;;;;4956747;28;20241;-54
2021/01/10 06:12:45;;;;;;;7.70;4.60;;;33.60;44.20;;;;;;4963103;28;20240;-51
2021/01/10 06:15:17;;;;;;;6.05;5.50;;;33.60;44.00;;;;;;4962444;28;20233;-55
2021/01/10 06:17:49;;;;;;;5.25;4.75;;;33.60;44.00;;;;;;4973522;28;20244;-55
2021/01/10 06:20:27;;;;;;;3.75;3.35;;;33.60;44.20;;;;;;4961941;28;20232;-55
2021/01/10 06:22:58;;;;;;;3.88;3.53;;;33.70;44.40;;;;;;4961449;28;20232;-53
2021/01/10 06:25:30;;;;;;;5.43;3.85;;;33.70;44.30;;;;;;4963187;28;20232;-57
2021/01/10 06:28:05;;;;;;;4.07;3.67;;;33.80;43.70;;;;;;4951184;28;20260;-56
2021/01/10 06:30:35;;;;;;;4.90;3.83;;;33.90;43.50;;;;;;4965774;28;20687;-55
2021/01/10 06:33:06;;;;;;;3.90;3.60;;;33.90;43.70;;;;;;4961258;28;20244;-51
2021/01/10 06:35:38;;;;;;;5.97;3.90;;;34.10;44.20;;;;;;4956387;28;20233;-52
2021/01/10 06:38:08;;;;;;;3.78;3.40;;;34.10;44.00;;;;;;4957696;28;20232;-55
2021/01/10 06:40:39;;;;;;;5.03;3.47;;;34.20;43.60;;;;;;4958891;28;20323;-51
2021/01/10 06:43:11;;;;;;;3.85;3.55;;;34.20;44.00;;;;;;4956017;28;20278;-53
2021/01/10 06:45:42;;;;;;;3.60;3.30;;;34.30;43.40;;;;;;4921699;28;20287;-52
2021/01/10 06:48:13;;;;;;;3.35;3.03;;;34.30;43.50;;;;;;4927218;28;20321;-56
2021/01/10 06:50:47;;;;;;;3.33;3.00;;;34.40;43.50;;;;;;4937343;28;20764;-57
2021/01/10 06:53:19;;;;;;;5.25;3.20;;;34.50;43.50;;;;;;4917482;29;20237;-58
2021/01/10 06:55:49;;;;;;;4.47;3.20;;;34.50;43.50;;;;;;4918138;29;20245;-56
2021/01/10 06:58:21;;;;;;;3.95;2.75;;;34.60;43.50;;;;;;4918840;28;20238;-55
2021/01/10 07:00:54;;;;;;;3.33;3.03;;;34.70;43.30;;;;;;4921035;28;20294;-57
2021/01/10 07:03:25;;;;;;;5.00;2.75;;;34.70;42.90;;;;;;4921778;28;20237;-54
2021/01/10 07:06:10;;;;;;;3.92;3.00;;;34.80;43.30;;;;;;4920938;28;20700;-56
2021/01/10 07:08:41;;;;;;;3.95;2.97;;;34.90;42.90;;;;;;4921787;28;20245;-51
2021/01/10 07:11:33;;;;;;;3.15;2.85;;;35.00;42.50;;;;;;4954932;28;20256;-54
2021/01/10 07:14:30;;;;;;;3.35;2.97;;;35.10;41.90;;;;;;4957874;28;20239;-57
2021/01/10 07:17:18;;;;;;;5.43;3.30;;;35.10;42.10;;;;;;4956344;28;20240;-51
2021/01/10 07:19:51;;;;;;;4.40;4.00;;;35.20;42.20;;;;;;4955285;28;20233;-54
2021/01/10 07:22:32;;;;;;;3.65;3.33;;;35.20;42.00;;;;;;4956693;28;20232;-51
2021/01/10 07:25:34;;;;;;;3.53;3.22;;;35.30;41.90;;;;;;4957150;28;20248;-55
2021/01/10 07:28:45;;;;;;;3.13;2.83;;;35.30;41.70;;;;;;4964264;28;20224;-52
2021/01/10 07:31:19;;;;;;;5.60;3.38;;;35.30;41.70;;;;;;4958090;28;20245;-51
2021/01/10 07:34:09;;;;;;;3.17;2.80;;;35.30;41.40;;;;;;4959794;28;20287;-53
2021/01/10 07:36:50;;;;;;;3.78;3.38;;;35.30;41.90;;;;;;4958978;28;20233;-53
2021/01/10 07:39:21;;;;;;;4.78;3.03;;;35.30;41.90;;;;;;4961341;28;20276;-53
2021/01/10 07:41:51;;;;;;;6.60;3.25;;;35.40;41.90;;;;;;4964398;28;20316;-56
2021/01/10 07:44:22;;;;;;;4.30;3.88;;;35.40;41.70;;;;;;4954708;28;20243;-54
2021/01/10 07:46:53;;;;;;;3.97;3.67;;;35.40;41.30;;;;;;5040260;28;20237;-51
2021/01/10 07:49:24;;;;;;;6.00;3.53;;;35.50;41.30;;;;;;5032923;28;20238;-52
2021/01/10 07:51:55;;;;;;;6.18;3.83;;;35.50;41.50;;;;;;5042130;28;20237;-54
2021/01/10 07:54:50;;;;;;;3.75;3.45;;;35.60;41.50;;;;;;5038288;28;20249;-53
2021/01/10 07:57:33;;;;;;;3.65;3.35;;;35.60;41.40;;;;;;5038818;28;20234;-52
2021/01/10 08:00:11;;;;;;;4.20;3.80;;;35.70;41.70;;;;;;5041451;28;20233;-51
2021/01/10 08:02:55;;;;;;;4.38;3.92;;;35.70;42.10;;;;;;5041034;28;20233;-51
2021/01/10 08:05:27;;;;;;;6.20;3.90;;;35.70;41.50;;;;;;5039184;28;20230;-51
2021/01/10 08:08:03;;;;;;;4.68;3.92;;;35.80;41.20;;;;;;5039063;28;20233;-52
2021/01/10 08:10:46;;;;;;;4.28;3.88;;;35.80;40.90;;;;;;5030307;28;20241;-51
2021/01/10 08:13:32;;;;;;;4.43;4.03;;;35.80;40.50;;;;;;4954352;28;20240;-52
2021/01/10 08:16:03;;;;;;;4.50;4.10;;;35.90;40.90;;;;;;4956548;28;20235;-50
2021/01/10 08:18:37;;;;;;;4.80;4.00;;;35.90;40.90;;;;;;4960999;28;20236;-51
2021/01/10 08:21:08;;;;;;;5.40;4.38;;;35.90;41.00;;;;;;4959706;28;20224;-51
2021/01/10 08:23:39;;;;;;;3.90;3.50;;;35.90;41.40;;;;;;4961286;28;20236;-51
2021/01/10 08:26:11;;;;;;;4.35;3.90;;;35.90;41.40;;;;;;4986649;28;20278;-53
2021/01/10 08:28:42;;;;;;;5.70;5.07;;;36.00;41.50;;;;;;4974577;28;20282;-54
2021/01/10 08:31:13;;;;;;;6.68;5.45;;;36.10;42.30;;;;;;4966497;28;20319;-51
2021/01/10 08:33:44;;;;;;;10.30;6.60;;;36.10;42.50;;;;;;4964783;28;20228;-51
2021/01/10 08:36:19;;;;;;;5.95;5.45;;;36.10;42.20;;;;;;4966502;28;20303;-52
2021/01/10 08:38:51;;;;;;;6.00;5.40;;;36.10;42.60;;;;;;4961209;28;20240;-53
2021/01/10 08:41:28;;;;;;;5.53;4.82;;;36.10;43.00;;;;;;4962191;28;20756;-53
2021/01/10 08:43:59;;;;;;;5.57;4.97;;;36.10;43.10;;;;;;4970021;28;20236;-51
2021/01/10 08:46:30;;;;;;;5.78;4.82;;;36.10;43.20;;;;;;4959349;28;20595;-52
2021/01/10 08:49:02;;;;;;;8.80;5.22;;;36.10;43.20;;;;;;4958452;28;20232;-55
2021/01/10 08:51:34;;;;;;;5.90;4.82;;;36.20;43.10;;;;;;4965655;28;20723;-56
2021/01/10 08:54:08;;;;;;;5.45;4.95;;;36.20;43.10;;;;;;4965889;28;20698;-54
2021/01/10 08:56:38;;;;;;;8.35;5.63;;;36.20;43.00;;;;;;4963742;28;20228;-54
2021/01/10 08:59:09;;;;;;;8.40;5.50;;;36.20;43.00;;;;;;4965408;28;20255;-54
2021/01/10 09:01:40;;;;;;;7.25;5.60;;;36.30;42.90;;;;;;4965623;28;20225;-54
2021/01/10 09:04:12;;;;;;;6.30;5.70;;;36.20;42.80;;;;;;4963738;28;20233;-53
2021/01/10 09:06:59;;;;;;;5.57;4.45;;;36.20;42.90;;;;;;4965963;28;20569;-51
2021/01/10 09:09:45;;;;;;;5.40;4.90;;;36.20;43.20;;;;;;4966041;28;20307;-56
2021/01/10 09:12:23;;;;;;;5.90;5.30;;;36.20;42.90;;;;;;4967417;28;20282;-51
2021/01/10 09:14:56;;;;;;;5.68;5.15;;;36.30;43.00;;;;;;4963554;28;20228;-57
2021/01/10 09:17:28;;;;;;;6.35;4.68;;;36.20;42.70;;;;;;4966166;28;20716;-51
2021/01/10 09:20:06;;;;;;;5.93;5.32;;;36.30;43.00;;;;;;4968265;28;20286;-52
2021/01/10 09:22:37;;;;;;;5.25;4.72;;;36.30;43.10;;;;;;4960790;28;20236;-57
2021/01/10 09:25:12;;;;;;;7.15;6.43;;;36.30;43.30;;;;;;4963861;28;20236;-54
2021/01/10 09:27:56;;;;;;;6.28;5.50;;;36.20;43.00;;;;;;4987122;28;20691;-52
2021/01/10 09:30:31;;;;;;;5.97;4.88;;;36.20;43.40;;;;;;4925629;28;20581;-54
2021/01/10 09:33:02;;;;;;;6.88;5.03;;;36.10;43.70;;;;;;4925019;28;20835;-51
2021/01/10 09:35:39;;;;;;;5.50;5.00;;;36.10;43.40;;;;;;4919728;28;20758;-53
2021/01/10 09:38:14;;;;;;;5.72;5.13;;;36.10;43.50;;;;;;4926595;28;20659;-54
2021/01/10 09:41:04;;;;;;;5.63;5.07;;;36.10;43.30;;;;;;4930155;28;20231;-55
2021/01/10 09:43:37;;;;;;;5.95;4.97;;;36.10;43.40;;;;;;4918388;28;20649;-53
2021/01/10 09:46:25;;;;;;;6.55;5.05;;;36.10;43.40;;;;;;4926348;29;20412;-53
2021/01/10 09:48:57;;;;;;;8.85;5.05;;;36.00;43.80;;;;;;4925704;28;20314;-56
2021/01/10 09:51:44;;;;;;;8.38;5.35;;;36.00;43.90;;;;;;4929779;28;20241;-55
2021/01/10 09:54:15;;;;;;;5.88;5.28;;;36.00;43.70;;;;;;4922696;29;20663;-55
2021/01/10 09:56:50;;;;;;;5.75;5.20;;;36.00;43.90;;;;;;4924587;29;20710;-56
2021/01/10 10:00:02;;;;;;;7.43;5.30;;;36.00;43.90;;;;;;4920260;29;20717;-57
2021/01/10 10:02:36;;;;;;;6.22;5.53;;;36.00;44.10;;;;;;4960473;28;20237;-52
2021/01/10 10:05:11;;;;;;;5.60;4.78;;;36.00;44.20;;;;;;4957034;28;20238;-57
2021/01/10 10:07:43;;;;;;;5.35;4.80;;;36.00;44.80;;;;;;4961148;28;20294;-54
2021/01/10 10:10:23;;;;;;;5.47;4.97;;;36.00;44.90;;;;;;4966262;28;20240;-54
2021/01/10 10:12:58;;;;;;;7.00;5.05;;;35.90;45.60;;;;;;4968588;28;20597;-50
2021/01/10 10:15:38;;;;;;;8.80;5.15;;;35.80;46.00;;;;;;4966254;28;20688;-53
2021/01/10 10:18:08;;;;;;;7.35;5.20;;;35.80;46.60;;;;;;4959729;28;21031;-56
2021/01/10 10:20:39;;;;;;;5.05;4.55;;;35.70;46.80;;;;;;4964509;28;20232;-54
2021/01/10 10:23:12;;;;;;;7.85;5.00;;;35.70;47.30;;;;;;4967291;28;20237;-54
2021/01/10 10:25:42;;;;;;;5.45;4.95;;;35.80;47.90;;;;;;4968088;28;20240;-51
2021/01/10 10:28:13;;;;;;;6.40;5.05;;;36.00;48.00;;;;;;4967875;28;20267;-55
2021/01/10 10:30:44;;;;;;;5.72;4.65;;;36.20;48.00;;;;;;4962625;28;20235;-51
2021/01/10 10:33:16;;;;;;;4.80;4.40;;;36.50;47.80;;;;;;4963941;28;20937;-55
2021/01/10 10:35:47;;;;;;;5.30;4.80;;;36.70;47.40;;;;;;4963676;28;20312;-54
2021/01/10 10:38:18;;;;;;;6.10;4.50;;;36.90;47.10;;;;;;4960707;28;20229;-57
2021/01/10 10:40:50;;;;;;;7.00;4.60;;;37.00;46.60;;;;;;4954847;28;20647;-55
2021/01/10 10:43:20;;;;;;;6.07;4.63;;;37.10;46.30;;;;;;4963113;28;20229;-54
2021/01/10 10:45:50;;;;;;;5.57;4.72;;;37.20;46.00;;;;;;4962474;28;20243;-55
2021/01/10 10:48:21;;;;;;;6.63;5.00;;;37.10;45.90;;;;;;4965270;28;20579;-56
2021/01/10 10:50:52;;;;;;;7.88;4.80;;;37.00;45.80;;;;;;4958620;28;20709;-52
2021/01/10 10:53:23;;;;;;;10.00;5.18;;;36.90;45.70;;;;;;4958442;28;20623;-53
2021/01/10 10:55:54;;;;;;;9.05;5.03;;;36.70;45.80;;;;;;4967756;28;20701;-55
2021/01/10 10:58:24;;;;;;;6.40;5.80;;;36.50;46.00;;;;;;4961640;28;20239;-53
2021/01/10 11:00:55;;;;;;;5.90;5.22;;;36.20;46.20;;;;;;4956043;28;20229;-54
2021/01/10 11:03:26;;;;;;;6.82;5.55;;;36.00;46.30;;;;;;4957818;28;20311;-53
2021/01/10 11:05:57;;;;;;;5.97;5.03;;;35.70;46.60;;;;;;4956067;28;20364;-53
2021/01/10 11:08:28;;;;;;;8.40;6.53;;;35.40;46.80;;;;;;4961568;28;20681;-52
2021/01/10 11:10:58;;;;;;;9.95;7.78;;;35.20;47.30;;;;;;4957728;28;20237;-59
2021/01/10 11:13:29;;;;;;;11.07;8.48;;;34.90;47.60;;;;;;4962046;28;20252;-54
2021/01/10 11:15:59;;;;;;;9.48;7.28;;;34.70;48.00;;;;;;4967686;28;20263;-54
2021/01/10 11:18:30;;;;;;;6.90;6.20;;;34.50;48.30;;;;;;4965371;28;20301;-56
2021/01/10 11:21:01;;;;;;;5.78;5.28;;;34.30;48.60;;;;;;4956408;28;20241;-56
2021/01/10 11:23:33;;;;;;;5.85;5.30;;;34.10;48.90;;;;;;5001595;28;20236;-57
2021/01/10 11:26:06;;;;;;;6.63;5.88;;;34.00;49.20;;;;;;4969919;28;20236;-52
2021/01/10 11:28:37;;;;;;;8.25;6.20;;;33.80;49.50;;;;;;4950548;28;20229;-51
2021/01/10 11:31:07;;;;;;;9.88;6.68;;;33.70;49.80;;;;;;4957943;28;20282;-55
2021/01/10 11:33:37;;;;;;;6.85;6.25;;;33.50;49.90;;;;;;4960540;28;20241;-53
2021/01/10 11:36:08;;;;;;;9.88;6.65;;;33.40;50.20;;;;;;4957851;28;20241;-53
2021/01/10 11:38:39;;;;;;;6.93;6.07;;;33.30;50.50;;;;;;4952697;28;20244;-56
2021/01/10 11:41:11;;;;;;;6.22;5.25;;;33.20;50.60;;;;;;4958057;28;20343;-52
2021/01/10 11:43:42;;;;;;;7.00;5.22;;;33.00;50.70;;;;;;4954520;28;20233;-53
2021/01/10 11:46:12;;;;;;;6.47;5.22;;;32.90;50.80;;;;;;4959843;28;20255;-54
2021/01/10 11:48:43;;;;;;;5.68;5.03;;;32.80;51.00;;;;;;4957852;28;20228;-56
2021/01/10 11:51:13;;;;;;;7.40;5.47;;;32.70;51.20;;;;;;4956265;28;20316;-57
2021/01/10 11:53:45;;;;;;;6.93;5.82;;;32.70;51.60;;;;;;4961471;28;20232;-52
2021/01/10 11:56:16;;;;;;;6.50;5.45;;;32.60;51.90;;;;;;4960218;28;20592;-55
2021/01/10 11:58:46;;;;;;;6.20;5.30;;;32.50;52.00;;;;;;4960013;28;20241;-57
2021/01/10 12:01:17;;;;;;;6.95;5.60;;;32.40;52.10;;;;;;4960367;28;20233;-56
2021/01/10 12:03:48;;;;;;;7.45;6.40;;;32.40;52.30;;;;;;4962192;28;20228;-55
2021/01/10 12:06:22;;;;;;;9.30;5.82;;;32.30;52.60;;;;;;4965665;28;20233;-53
2021/01/10 12:08:53;;;;;;;7.55;6.15;;;32.20;52.90;;;;;;4958433;28;20241;-56
2021/01/10 12:11:24;;;;;;;8.57;6.53;;;32.20;52.80;;;;;;4964618;28;20243;-55
2021/01/10 12:13:56;;;;;;;8.90;6.60;;;32.10;53.00;;;;;;4967641;28;20320;-52
2021/01/10 12:16:26;;;;;;;8.30;6.68;;;32.00;53.10;;;;;;4965827;28;20234;-56
2021/01/10 12:18:57;;;;;;;9.70;7.50;;;32.00;53.30;;;;;;4959827;28;20240;-55
2021/01/10 12:21:28;;;;;;;9.73;7.25;;;31.90;53.40;;;;;;4957652;28;20230;-54
2021/01/10 12:24:00;;;;;;;9.38;8.02;;;31.90;53.50;;;;;;4971045;28;20233;-56
2021/01/10 12:26:31;;;;;;;9.93;8.07;;;31.80;53.60;;;;;;4963013;28;20320;-56
2021/01/10 12:29:02;;;;;;;8.10;7.13;;;31.70;53.70;;;;;;4965856;28;20232;-56
2021/01/10 12:31:32;;;;;;;9.57;7.20;;;31.60;53.70;;;;;;4966211;28;20232;-55
2021/01/10 12:34:02;;;;;;;7.95;6.80;;;31.60;53.80;;;;;;4973663;28;20709;-51
2021/01/10 12:36:33;;;;;;;7.45;6.68;;;31.50;53.90;;;;;;4966833;28;20224;-53
2021/01/10 12:39:05;;;;;;;8.68;6.53;;;31.50;54.00;;;;;;4983640;28;20236;-54
2021/01/10 12:41:36;;;;;;;6.53;5.85;;;31.40;54.20;;;;;;4964868;28;20697;-51
2021/01/10 12:44:06;;;;;;;6.88;5.72;;;31.30;54.10;;;;;;4976461;28;20320;-52
2021/01/10 12:46:37;;;;;;;7.35;5.97;;;31.30;54.20;;;;;;4967173;28;20339;-52
2021/01/10 12:49:08;;;;;;;6.65;5.38;;;31.30;54.40;;;;;;4964356;28;20713;-52
2021/01/10 12:51:41;;;;;;;5.68;5.00;;;31.20;54.40;;;;;;4961420;28;20237;-54
2021/01/10 12:54:12;;;;;;;6.93;5.85;;;31.10;54.60;;;;;;4962258;28;20572;-56
2021/01/10 12:56:43;;;;;;;7.45;6.07;;;31.10;54.80;;;;;;4968043;28;20632;-54
2021/01/10 12:59:13;;;;;;;6.95;5.60;;;31.00;54.90;;;;;;4969816;28;20235;-52
2021/01/10 13:01:44;;;;;;;7.60;5.88;;;31.00;55.10;;;;;;4966218;28;20286;-55
2021/01/10 13:04:14;;;;;;;7.80;5.38;;;30.90;55.20;;;;;;4967446;28;20316;-57
2021/01/10 13:06:45;;;;;;;8.02;6.03;;;30.90;55.30;;;;;;4968192;28;20312;-55
2021/01/10 13:09:16;;;;;;;6.63;5.93;;;30.80;55.40;;;;;;4960505;28;20311;-53
2021/01/10 13:11:47;;;;;;;7.82;6.25;;;30.80;55.80;;;;;;4966978;28;20692;-55
2021/01/10 13:14:17;;;;;;;9.00;7.97;;;30.70;55.70;;;;;;4962452;28;20295;-54